Time;durP1;ratioP1;P1;durP2;ratioP2;P2;SDS_P1;SDS_P2;PMS_P1;PMS_P2;Temp;Humidity;BMP_temperature;BMP_pressure;BME280_temperature;BME280_humidity;BME280_pressure;Samples;Min_cycle;Max_cycle;Signal;HPM_P1;HPM_P2
2021/10/29 00:01:53;;;;;;;11.40;10.10;;;;;;;;;;5011567;28;20306;-71
2021/10/29 00:04:18;;;;;;;12.83;8.43;;;;;;;;;;5012610;28;20193;-71
2021/10/29 00:06:44;;;;;;;12.20;9.80;;;;;;;;;;4993338;28;20179;-70
2021/10/29 00:09:09;;;;;;;11.40;9.40;;;;;;;;;;5012705;28;20558;-70
2021/10/29 00:11:34;;;;;;;13.17;9.93;;;;;;;;;;5012669;28;20237;-70
2021/10/29 00:13:59;;;;;;;12.20;8.97;;;;;;;;;;5018165;28;20174;-73
2021/10/29 00:16:24;;;;;;;11.90;9.03;;;;;;;;;;5014010;28;20719;-73
2021/10/29 00:18:50;;;;;;;14.93;9.73;;;;;;;;;;5015118;28;20226;-73
2021/10/29 00:21:15;;;;;;;10.77;8.13;;;;;;;;;;5005482;28;20202;-70
2021/10/29 00:23:40;;;;;;;13.50;9.70;;;;;;;;;;5009410;28;20204;-70
2021/10/29 00:26:05;;;;;;;12.20;9.27;;;;;;;;;;5011318;28;20525;-71
2021/10/29 00:28:30;;;;;;;10.73;8.47;;;;;;;;;;5011738;28;20202;-73
2021/10/29 00:30:56;;;;;;;12.70;9.77;;;;;;;;;;5008602;28;20183;-70
2021/10/29 00:33:21;;;;;;;10.97;8.40;;;;;;;;;;5011202;28;20233;-70
2021/10/29 00:35:46;;;;;;;13.27;9.10;;;;;;;;;;5010717;28;20249;-70
2021/10/29 00:38:12;;;;;;;13.07;9.40;;;;;;;;;;5002059;28;20295;-73
2021/10/29 00:40:39;;;;;;;11.53;9.30;;;;;;;;;;4992606;28;20338;-71
2021/10/29 00:43:05;;;;;;;12.67;8.40;;;;;;;;;;5013236;28;20186;-70
2021/10/29 00:45:30;;;;;;;11.80;9.07;;;;;;;;;;5014111;28;20689;-70
2021/10/29 00:47:55;;;;;;;11.17;8.27;;;;;;;;;;4995175;28;20210;-70
2021/10/29 00:50:21;;;;;;;12.93;9.13;;;;;;;;;;5008518;28;20519;-71
2021/10/29 00:52:46;;;;;;;13.53;7.90;;;;;;;;;;5008097;28;20186;-70
2021/10/29 00:55:14;;;;;;;11.13;8.53;;;;;;;;;;5011902;28;20182;-71
2021/10/29 00:57:40;;;;;;;12.37;8.80;;;;;;;;;;4993924;28;20627;-72
2021/10/29 01:00:06;;;;;;;17.30;9.17;;;;;;;;;;5009738;28;20203;-71
2021/10/29 01:02:31;;;;;;;12.83;8.70;;;;;;;;;;5016378;28;20170;-71
2021/10/29 01:04:58;;;;;;;10.07;8.83;;;;;;;;;;5019059;28;20182;-70
2021/10/29 01:07:23;;;;;;;18.17;10.37;;;;;;;;;;5010848;28;20248;-70
2021/10/29 01:09:48;;;;;;;12.73;9.17;;;;;;;;;;5008305;28;20171;-72
2021/10/29 01:12:14;;;;;;;13.00;9.13;;;;;;;;;;4995177;28;20265;-72
2021/10/29 01:14:39;;;;;;;13.17;9.60;;;;;;;;;;5008622;28;20906;-71
2021/10/29 01:17:04;;;;;;;13.27;9.00;;;;;;;;;;5010167;28;20205;-70
2021/10/29 01:19:30;;;;;;;12.10;8.53;;;;;;;;;;5004848;28;20174;-72
2021/10/29 01:21:56;;;;;;;12.73;9.17;;;;;;;;;;5009773;28;20659;-73
2021/10/29 01:24:21;;;;;;;15.83;9.57;;;;;;;;;;5012374;28;20265;-71
2021/10/29 01:26:46;;;;;;;12.90;9.33;;;;;;;;;;5021370;28;20249;-71
2021/10/29 01:29:11;;;;;;;11.63;8.83;;;;;;;;;;5020881;28;20558;-71
2021/10/29 01:31:37;;;;;;;14.53;9.10;;;;;;;;;;5015955;28;20309;-70
2021/10/29 01:34:02;;;;;;;16.73;9.07;;;;;;;;;;5009999;28;20186;-72
2021/10/29 01:36:27;;;;;;;16.47;9.17;;;;;;;;;;5010666;28;20191;-71
2021/10/29 01:38:52;;;;;;;12.53;8.73;;;;;;;;;;5006360;28;20265;-72
2021/10/29 01:41:18;;;;;;;13.03;8.13;;;;;;;;;;5009191;28;20206;-70
2021/10/29 01:43:44;;;;;;;12.43;9.33;;;;;;;;;;5008332;28;20182;-70
2021/10/29 01:46:10;;;;;;;19.13;10.07;;;;;;;;;;5012208;28;20388;-70
2021/10/29 01:48:49;;;;;;;13.50;9.03;;;;;;;;;;5006927;28;20221;-72
2021/10/29 01:51:14;;;;;;;13.33;8.20;;;;;;;;;;5007942;28;20193;-70
2021/10/29 01:53:40;;;;;;;15.73;9.83;;;;;;;;;;5008786;28;20194;-71
2021/10/29 01:56:06;;;;;;;17.27;9.33;;;;;;;;;;5008919;28;20841;-73
2021/10/29 01:58:31;;;;;;;15.53;9.80;;;;;;;;;;5008582;28;21009;-72
2021/10/29 02:00:56;;;;;;;16.23;9.60;;;;;;;;;;5006652;28;20210;-72
2021/10/29 02:03:21;;;;;;;13.27;8.80;;;;;;;;;;5008874;28;20609;-73
2021/10/29 02:05:46;;;;;;;15.23;9.80;;;;;;;;;;5007261;28;20185;-70
2021/10/29 02:08:12;;;;;;;13.87;9.50;;;;;;;;;;5007729;28;20672;-70
2021/10/29 02:10:37;;;;;;;20.40;8.83;;;;;;;;;;5006382;28;20217;-70
2021/10/29 02:13:03;;;;;;;15.53;9.27;;;;;;;;;;4989859;28;20311;-71
2021/10/29 02:15:29;;;;;;;13.40;9.83;;;;;;;;;;5008933;28;20725;-71
2021/10/29 02:17:54;;;;;;;15.87;9.33;;;;;;;;;;5035872;22;20275;-71
2021/10/29 02:20:19;;;;;;;14.40;9.90;;;;;;;;;;5028049;28;20237;-73
2021/10/29 02:22:44;;;;;;;19.43;10.40;;;;;;;;;;5028125;28;20181;-73
2021/10/29 02:25:09;;;;;;;17.77;10.40;;;;;;;;;;5027814;28;20173;-72
2021/10/29 02:27:35;;;;;;;16.50;9.33;;;;;;;;;;5020995;28;20731;-70
2021/10/29 02:30:00;;;;;;;14.83;9.67;;;;;;;;;;5008323;28;20675;-72
2021/10/29 02:32:25;;;;;;;12.83;9.00;;;;;;;;;;5009287;28;20570;-71
2021/10/29 02:34:51;;;;;;;16.40;9.43;;;;;;;;;;5011917;28;20178;-72
2021/10/29 02:37:16;;;;;;;13.63;9.20;;;;;;;;;;5010707;28;20557;-74
2021/10/29 02:39:41;;;;;;;21.23;11.50;;;;;;;;;;5007466;28;20281;-72
2021/10/29 02:42:07;;;;;;;21.50;12.03;;;;;;;;;;5008795;28;20649;-71
2021/10/29 02:44:32;;;;;;;19.73;11.20;;;;;;;;;;5021296;28;20189;-72
2021/10/29 02:46:58;;;;;;;13.63;9.60;;;;;;;;;;5014165;28;20179;-71
2021/10/29 02:49:23;;;;;;;17.50;9.60;;;;;;;;;;4994192;28;20189;-72
2021/10/29 02:51:48;;;;;;;20.47;10.73;;;;;;;;;;5011464;28;20664;-72
2021/10/29 02:54:13;;;;;;;13.93;9.23;;;;;;;;;;5008138;28;20186;-72
2021/10/29 02:56:38;;;;;;;15.77;10.13;;;;;;;;;;5008065;28;20186;-72
2021/10/29 02:59:04;;;;;;;18.57;9.73;;;;;;;;;;5010576;28;20325;-70
2021/10/29 03:01:29;;;;;;;14.83;11.53;;;;;;;;;;5008830;28;20555;-71
2021/10/29 03:03:54;;;;;;;16.47;10.70;;;;;;;;;;5009080;28;20255;-72
2021/10/29 03:06:20;;;;;;;18.03;10.63;;;;;;;;;;5008893;28;20178;-72
2021/10/29 03:08:45;;;;;;;14.73;10.47;;;;;;;;;;5008617;28;20210;-72
2021/10/29 03:11:10;;;;;;;14.70;9.63;;;;;;;;;;5007950;28;20197;-71
2021/10/29 03:13:35;;;;;;;17.70;9.73;;;;;;;;;;5006778;28;20212;-71
2021/10/29 03:16:00;;;;;;;19.57;10.40;;;;;;;;;;5009826;28;20799;-72
2021/10/29 03:18:25;;;;;;;14.20;9.67;;;;;;;;;;5010803;28;20217;-71
2021/10/29 03:20:51;;;;;;;16.10;10.17;;;;;;;;;;5006439;28;20290;-71
2021/10/29 03:23:17;;;;;;;16.10;8.90;;;;;;;;;;5010070;28;21224;-71
2021/10/29 03:25:43;;;;;;;14.00;10.27;;;;;;;;;;5012596;28;20179;-69
2021/10/29 03:28:08;;;;;;;15.50;9.93;;;;;;;;;;5016207;28;20202;-70
2021/10/29 03:30:34;;;;;;;12.67;8.90;;;;;;;;;;4994850;28;20185;-71
2021/10/29 03:32:59;;;;;;;14.50;9.37;;;;;;;;;;5015044;28;20178;-72
2021/10/29 03:35:24;;;;;;;13.77;9.23;;;;;;;;;;5011654;28;20250;-71
2021/10/29 03:40:32;;;;;;;13.73;9.13;;;;;;;;;;5012638;28;20698;-70
2021/10/29 03:46:27;;;;;;;14.80;10.07;;;;;;;;;;4960540;28;20235;-71
2021/10/29 03:48:57;;;;;;;14.67;8.30;;;;;;;;;;5010003;28;20276;-70
2021/10/29 03:51:26;;;;;;;12.60;9.13;;;;;;;;;;5014736;28;20202;-70
2021/10/29 03:53:57;;;;;;;10.47;8.60;;;;;;;;;;5022187;28;20178;-71
2021/10/29 03:56:25;;;;;;;14.00;9.07;;;;;;;;;;5018478;28;20224;-71
2021/10/29 03:58:51;;;;;;;16.40;8.97;;;;;;;;;;5018836;28;20236;-69
2021/10/29 04:01:17;;;;;;;12.57;8.43;;;;;;;;;;5019754;28;20226;-70
2021/10/29 04:03:43;;;;;;;11.20;8.00;;;;;;;;;;5000301;28;20201;-70
2021/10/29 04:06:08;;;;;;;13.93;9.53;;;;;;;;;;5018748;28;20204;-70
2021/10/29 04:08:33;;;;;;;13.20;8.90;;;;;;;;;;5022923;28;20743;-72
2021/10/29 04:10:59;;;;;;;13.87;8.93;;;;;;;;;;5024397;28;20182;-71
2021/10/29 04:13:28;;;;;;;14.63;9.23;;;;;;;;;;5014951;28;20592;-70
2021/10/29 04:15:54;;;;;;;14.63;8.63;;;;;;;;;;5010753;28;20205;-70
2021/10/29 04:18:20;;;;;;;12.17;8.50;;;;;;;;;;5017664;28;20218;-69
2021/10/29 04:20:45;;;;;;;12.90;9.03;;;;;;;;;;5012499;28;20667;-70
2021/10/29 04:23:10;;;;;;;13.67;8.93;;;;;;;;;;5011435;28;20183;-69
2021/10/29 04:25:36;;;;;;;19.40;9.03;;;;;;;;;;5012858;28;20183;-71
2021/10/29 04:28:07;;;;;;;11.47;8.13;;;;;;;;;;5015558;28;20202;-70
2021/10/29 04:30:32;;;;;;;12.77;7.90;;;;;;;;;;5011542;28;20185;-72
2021/10/29 04:32:58;;;;;;;16.20;9.93;;;;;;;;;;5009841;28;20187;-71
2021/10/29 04:35:24;;;;;;;12.73;7.80;;;;;;;;;;5021850;28;20183;-72
2021/10/29 04:37:49;;;;;;;13.47;8.77;;;;;;;;;;5003901;28;20206;-70
2021/10/29 04:40:14;;;;;;;12.53;9.27;;;;;;;;;;5014146;28;20295;-72
2021/10/29 04:42:40;;;;;;;10.93;8.53;;;;;;;;;;5013720;28;21733;-72
2021/10/29 04:45:06;;;;;;;11.70;8.27;;;;;;;;;;5011948;28;20194;-72
2021/10/29 04:47:32;;;;;;;12.00;8.07;;;;;;;;;;4994524;28;20202;-70
2021/10/29 04:49:57;;;;;;;11.27;8.00;;;;;;;;;;5011161;28;20170;-70
2021/10/29 04:52:22;;;;;;;13.00;9.30;;;;;;;;;;5011916;28;20272;-72
2021/10/29 04:54:47;;;;;;;12.10;8.40;;;;;;;;;;5011132;28;20202;-72
2021/10/29 04:57:13;;;;;;;13.63;9.20;;;;;;;;;;4997667;28;20206;-71
2021/10/29 04:59:38;;;;;;;11.50;8.53;;;;;;;;;;5013336;28;20182;-71
2021/10/29 05:02:03;;;;;;;9.83;7.87;;;;;;;;;;5011473;28;20257;-69
2021/10/29 05:04:28;;;;;;;12.93;8.93;;;;;;;;;;5011467;28;20174;-71
2021/10/29 05:06:53;;;;;;;12.23;8.00;;;;;;;;;;5011957;28;20241;-70
2021/10/29 05:09:19;;;;;;;11.70;8.40;;;;;;;;;;4997080;28;20174;-69
2021/10/29 05:11:44;;;;;;;12.43;8.60;;;;;;;;;;5010724;28;20189;-72
2021/10/29 05:14:09;;;;;;;12.27;9.17;;;;;;;;;;5010659;28;20182;-70
2021/10/29 05:16:34;;;;;;;11.60;8.43;;;;;;;;;;4993450;28;20568;-71
2021/10/29 05:18:59;;;;;;;12.93;7.80;;;;;;;;;;5012577;28;20214;-71
2021/10/29 05:21:25;;;;;;;13.80;8.70;;;;;;;;;;5010306;28;20241;-71
2021/10/29 05:23:50;;;;;;;12.43;8.73;;;;;;;;;;5010418;28;20178;-71
2021/10/29 05:26:15;;;;;;;14.20;8.50;;;;;;;;;;5010080;28;20210;-70
2021/10/29 05:28:40;;;;;;;12.80;8.93;;;;;;;;;;5011028;28;20292;-71
2021/10/29 05:31:06;;;;;;;11.13;8.20;;;;;;;;;;5015752;28;20195;-70
2021/10/29 05:33:32;;;;;;;11.17;8.33;;;;;;;;;;5010852;28;20209;-72
2021/10/29 05:35:57;;;;;;;12.73;8.93;;;;;;;;;;5009805;28;20265;-70
2021/10/29 05:38:22;;;;;;;14.47;8.90;;;;;;;;;;5011269;28;20206;-71
2021/10/29 05:40:48;;;;;;;13.67;8.47;;;;;;;;;;5008749;28;20687;-71
2021/10/29 05:43:13;;;;;;;13.07;8.47;;;;;;;;;;5010608;28;20187;-69
2021/10/29 05:45:38;;;;;;;12.60;8.37;;;;;;;;;;5008969;28;20273;-70
2021/10/29 05:48:06;;;;;;;10.30;7.77;;;;;;;;;;5015383;28;20385;-71
2021/10/29 05:50:31;;;;;;;11.60;8.57;;;;;;;;;;5010926;28;20210;-70
2021/10/29 05:52:58;;;;;;;12.17;8.20;;;;;;;;;;5011740;28;20270;-70
2021/10/29 05:55:23;;;;;;;10.07;7.83;;;;;;;;;;5010528;28;20186;-70
2021/10/29 05:57:50;;;;;;;11.03;7.33;;;;;;;;;;5014992;28;20202;-70
2021/10/29 06:00:16;;;;;;;9.23;7.87;;;;;;;;;;5011402;28;20645;-72
2021/10/29 06:02:41;;;;;;;10.70;7.60;;;;;;;;;;5008786;28;20182;-72
2021/10/29 06:05:07;;;;;;;11.47;7.43;;;;;;;;;;4992992;28;20186;-71
2021/10/29 06:07:33;;;;;;;10.17;7.80;;;;;;;;;;4990915;28;20201;-70
2021/10/29 06:09:58;;;;;;;12.63;7.10;;;;;;;;;;5009057;28;20286;-71
2021/10/29 06:12:24;;;;;;;12.53;8.03;;;;;;;;;;5010507;28;20189;-72
2021/10/29 06:14:49;;;;;;;11.70;7.27;;;;;;;;;;5010617;28;20182;-72
2021/10/29 06:17:17;;;;;;;9.60;7.23;;;;;;;;;;5009225;28;20206;-70
2021/10/29 06:19:43;;;;;;;10.33;7.53;;;;;;;;;;5011537;28;20179;-70
2021/10/29 06:22:14;;;;;;;10.03;7.23;;;;;;;;;;4995398;28;20210;-71
2021/10/29 06:24:40;;;;;;;9.43;6.70;;;;;;;;;;5010832;28;20604;-71
2021/10/29 06:29:57;;;;;;;9.10;7.03;;;;;;;;;;4986246;28;20514;-72
2021/10/29 06:32:23;;;;;;;13.40;7.83;;;;;;;;;;5010633;28;20647;-71
2021/10/29 06:34:48;;;;;;;8.73;7.20;;;;;;;;;;5010308;28;20277;-70
2021/10/29 06:37:15;;;;;;;9.23;7.53;;;;;;;;;;4993352;28;20197;-71
2021/10/29 06:39:40;;;;;;;8.07;6.57;;;;;;;;;;5007082;28;20635;-70
2021/10/29 06:42:10;;;;;;;8.33;6.77;;;;;;;;;;4993643;28;20210;-72
2021/10/29 06:44:48;;;;;;;11.47;6.63;;;;;;;;;;5011575;28;20406;-71
2021/10/29 07:00:53;;;;;;;14.27;8.53;;;;;;;;;;5010165;28;20264;-70
2021/10/29 07:41:13;;;;;;;6.93;5.70;;;;;;;;;;5032333;28;20686;-71
2021/10/29 07:43:46;;;;;;;8.03;6.37;;;;;;;;;;5034129;28;20170;-71
2021/10/29 07:46:11;;;;;;;8.07;6.18;;;;;;;;;;5025854;28;21061;-72
2021/10/29 07:48:37;;;;;;;8.75;6.07;;;;;;;;;;5028168;28;20273;-72
2021/10/29 07:51:03;;;;;;;7.38;5.68;;;;;;;;;;5030628;28;20170;-72
2021/10/29 07:53:29;;;;;;;8.93;5.68;;;;;;;;;;5030018;28;20190;-72
2021/10/29 07:55:55;;;;;;;6.10;5.30;;;;;;;;;;5026377;28;20485;-72
2021/10/29 07:58:21;;;;;;;7.63;5.63;;;;;;;;;;5025440;28;20790;-71
2021/10/29 08:00:47;;;;;;;8.23;6.13;;;;;;;;;;5028348;28;20288;-71
2021/10/29 08:03:12;;;;;;;10.02;5.72;;;;;;;;;;5027310;28;20296;-71
2021/10/29 08:05:38;;;;;;;8.55;6.05;;;;;;;;;;5028208;28;20208;-72
2021/10/29 08:08:04;;;;;;;7.97;5.95;;;;;;;;;;5026509;28;20698;-72
2021/10/29 08:10:30;;;;;;;8.55;5.47;;;;;;;;;;5027233;28;20639;-72
2021/10/29 08:12:55;;;;;;;7.18;5.75;;;;;;;;;;5031500;28;20345;-70
2021/10/29 08:15:20;;;;;;;8.82;5.85;;;;;;;;;;5032172;28;20272;-72
2021/10/29 08:17:45;;;;;;;5.65;5.10;;;;;;;;;;5028828;23;20236;-71
2021/10/29 08:20:12;;;;;;;9.55;5.82;;;;;;;;;;5035270;28;20205;-69
2021/10/29 08:22:38;;;;;;;8.32;5.55;;;;;;;;;;5027907;28;20174;-67
2021/10/29 08:25:08;;;;;;;9.00;5.85;;;;;;;;;;5031593;28;20310;-67
2021/10/29 08:27:33;;;;;;;8.95;5.90;;;;;;;;;;5032753;28;20177;-67
2021/10/29 08:29:58;;;;;;;9.07;6.38;;;;;;;;;;5010635;28;20193;-68
2021/10/29 08:32:24;;;;;;;10.77;5.78;;;;;;;;;;5009234;28;20737;-68
2021/10/29 08:34:49;;;;;;;8.77;6.47;;;;;;;;;;5012922;28;20652;-67
2021/10/29 08:37:15;;;;;;;7.78;5.70;;;;;;;;;;5010029;28;20202;-68
2021/10/29 08:39:41;;;;;;;7.22;5.63;;;;;;;;;;5013044;28;20205;-68
2021/10/29 08:42:06;;;;;;;8.32;6.43;;;;;;;;;;5008614;28;20206;-71
2021/10/29 08:44:32;;;;;;;7.28;5.70;;;;;;;;;;5013793;28;20199;-67
2021/10/29 08:47:01;;;;;;;11.43;6.53;;;;;;;;;;4991103;28;20252;-69
2021/10/29 08:49:27;;;;;;;6.22;5.35;;;;;;;;;;4992625;28;20309;-69
2021/10/29 08:51:52;;;;;;;7.47;6.03;;;;;;;;;;5012729;28;22105;-68
2021/10/29 08:54:19;;;;;;;9.35;6.32;;;;;;;;;;5006027;28;20178;-67
2021/10/29 08:56:44;;;;;;;6.78;5.28;;;;;;;;;;5025922;28;20262;-69
2021/10/29 08:59:14;;;;;;;15.10;7.32;;;;;;;;;;4998538;28;20271;-68
2021/10/29 09:07:28;;;;;;;6.95;5.63;;;;;;;;;;5009130;28;20185;-68
2021/10/29 09:31:34;;;;;;;7.38;5.68;;;;;;;;;;5012722;28;20269;-68
2021/10/29 09:34:12;;;;;;;11.18;5.80;;;;;;;;;;5009506;28;20190;-68
2021/10/29 09:36:38;;;;;;;8.73;5.40;;;;;;;;;;5009248;28;20734;-70
2021/10/29 09:39:12;;;;;;;7.65;5.13;;;;;;;;;;5011115;28;20213;-68
2021/10/29 09:41:38;;;;;;;10.02;5.75;;;;;;;;;;5009949;28;20255;-70
2021/10/29 09:44:04;;;;;;;9.95;5.53;;;;;;;;;;5010937;28;20171;-70
2021/10/29 09:46:36;;;;;;;6.25;5.28;;;;;;;;;;5015486;28;20707;-68
2021/10/29 09:49:31;;;;;;;7.38;5.13;;;;;;;;;;5011372;28;20194;-70
2021/10/29 09:53:03;;;;;;;7.85;5.22;;;;;;;;;;5012172;28;20194;-68
2021/10/29 09:54:58;;;;;;;11.48;6.68;;;;;;;;;;4994762;28;21459;-69
2021/10/29 09:57:24;;;;;;;10.15;6.35;;;;;;;;;;5011461;28;20201;-70
2021/10/29 09:59:53;;;;;;;6.30;5.38;;;;;;;;;;5013063;28;21505;-70
2021/10/29 10:02:19;;;;;;;10.20;5.03;;;;;;;;;;5009849;28;20214;-68
2021/10/29 10:04:48;;;;;;;6.72;5.00;;;;;;;;;;5025367;28;20174;-70
2021/10/29 10:07:13;;;;;;;7.85;5.07;;;;;;;;;;5009278;28;20213;-69
2021/10/29 10:09:39;;;;;;;9.85;5.65;;;;;;;;;;5009894;28;20340;-69
2021/10/29 10:12:05;;;;;;;7.22;4.97;;;;;;;;;;5008044;28;20675;-70
2021/10/29 10:14:31;;;;;;;7.13;5.55;;;;;;;;;;5008120;28;20220;-68
2021/10/29 10:16:56;;;;;;;8.25;4.80;;;;;;;;;;5008915;28;20281;-69
2021/10/29 10:19:22;;;;;;;7.57;5.00;;;;;;;;;;5012954;28;20630;-69
2021/10/29 10:21:53;;;;;;;7.13;5.00;;;;;;;;;;5009129;28;20207;-68
2021/10/29 10:24:22;;;;;;;7.18;5.10;;;;;;;;;;4991137;28;20179;-69
2021/10/29 10:49:25;;;;;;;7.57;5.40;;;;;;;;;;5028834;28;20198;-70
2021/10/29 10:51:40;;;;;;;7.40;4.60;;;;;;;;;;5018952;28;20274;-70
2021/10/29 10:54:15;;;;;;;7.00;4.55;;;;;;;;;;5026992;28;20678;-69
2021/10/29 10:57:00;;;;;;;5.97;4.78;;;;;;;;;;5013236;28;20177;-70
2021/10/29 11:05:09;;;;;;;8.57;3.92;;;;;;;;;;5029831;28;20190;-70
2021/10/29 11:10:24;;;;;;;4.93;3.47;;;;;;;;;;4991749;28;20190;-69
2021/10/29 11:12:50;;;;;;;6.95;4.13;;;;;;;;;;5010248;28;20968;-69
2021/10/29 11:15:18;;;;;;;5.35;3.35;;;;;;;;;;4993340;28;20194;-69
2021/10/29 11:17:46;;;;;;;4.50;2.65;;;;;;;;;;5011851;28;20220;-70
2021/10/29 11:20:31;;;;;;;5.63;2.97;;;;;;;;;;4991238;28;20219;-69
2021/10/29 11:23:02;;;;;;;5.20;3.35;;;;;;;;;;5010255;28;20234;-68
2021/10/29 11:25:45;;;;;;;4.78;3.05;;;;;;;;;;5008922;28;20178;-68
2021/10/29 11:28:11;;;;;;;6.57;2.90;;;;;;;;;;5010779;28;20198;-68
2021/10/29 11:30:43;;;;;;;5.82;3.55;;;;;;;;;;5008313;28;20183;-68
2021/10/29 11:33:08;;;;;;;5.30;2.97;;;;;;;;;;5008875;28;20272;-70
2021/10/29 11:35:34;;;;;;;5.50;2.92;;;;;;;;;;5008952;28;20770;-70
2021/10/29 11:38:00;;;;;;;5.95;2.80;;;;;;;;;;5015146;28;20291;-69
2021/10/29 11:40:25;;;;;;;7.45;3.10;;;;;;;;;;5009505;28;20217;-70
2021/10/29 11:42:55;;;;;;;4.63;2.75;;;;;;;;;;5008436;28;20668;-69
2021/10/29 11:45:28;;;;;;;5.75;3.50;;;;;;;;;;5011540;28;20166;-71
2021/10/29 11:47:54;;;;;;;4.80;3.55;;;;;;;;;;5016760;28;20206;-70
2021/10/29 11:50:23;;;;;;;3.92;2.97;;;;;;;;;;5019730;28;20193;-70
2021/10/29 11:52:48;;;;;;;4.90;3.25;;;;;;;;;;5012509;28;20332;-69
2021/10/29 11:55:18;;;;;;;4.32;2.95;;;;;;;;;;5011999;28;20186;-69
2021/10/29 11:57:50;;;;;;;10.57;3.97;;;;;;;;;;5015128;28;20663;-68
2021/10/29 12:00:27;;;;;;;4.22;3.13;;;;;;;;;;5011618;28;20178;-67
2021/10/29 12:06:10;;;;;;;5.75;3.30;;;;;;;;;;5012761;28;20189;-69
2021/10/29 12:08:37;;;;;;;6.18;3.15;;;;;;;;;;4996768;28;20690;-67
2021/10/29 12:11:05;;;;;;;5.45;2.92;;;;;;;;;;5012366;28;20217;-70
2021/10/29 12:13:32;;;;;;;6.82;3.50;;;;;;;;;;5013790;28;20660;-68
2021/10/29 12:15:58;;;;;;;6.13;3.35;;;;;;;;;;5012429;28;20237;-69
2021/10/29 12:18:26;;;;;;;4.75;3.38;;;;;;;;;;5018218;28;20674;-69
2021/10/29 12:20:51;;;;;;;4.80;2.80;;;;;;;;;;5009437;28;20253;-68
2021/10/29 12:23:24;;;;;;;5.75;2.80;;;;;;;;;;5012359;28;20269;-69
2021/10/29 12:28:18;;;;;;;5.20;2.95;;;;;;;;;;5015913;28;20211;-68
2021/10/29 12:30:52;;;;;;;5.80;2.92;;;;;;;;;;5011230;28;20181;-68
2021/10/29 12:33:37;;;;;;;5.75;3.05;;;;;;;;;;4994025;28;20688;-69
2021/10/29 13:03:54;;;;;;;7.30;3.50;;;;;;;;;;5014193;28;20181;-68
2021/10/29 13:06:19;;;;;;;4.35;3.00;;;;;;;;;;5013915;28;20570;-69
2021/10/29 13:08:49;;;;;;;4.00;2.75;;;;;;;;;;5012542;28;20195;-69
2021/10/29 13:11:17;;;;;;;8.18;3.10;;;;;;;;;;5012054;28;20197;-69
2021/10/29 13:13:48;;;;;;;5.85;2.72;;;;;;;;;;4993822;28;20239;-70
2021/10/29 13:16:15;;;;;;;4.53;2.72;;;;;;;;;;5013997;28;20366;-69
2021/10/29 13:53:01;;;;;;;4.05;2.55;;;;;;;;;;5013959;28;20236;-67
2021/10/29 13:58:44;;;;;;;3.75;2.90;;;;;;;;;;4988871;28;20263;-68
2021/10/29 14:28:29;;;;;;;3.85;2.85;;;;;;;;;;5009269;28;20309;-70
2021/10/29 14:30:59;;;;;;;4.90;2.95;;;;;;;;;;5009595;28;20240;-71
2021/10/29 14:33:29;;;;;;;5.78;3.17;;;;;;;;;;5008648;28;20185;-70
2021/10/29 14:35:57;;;;;;;7.47;2.90;;;;;;;;;;5011806;28;20190;-71
2021/10/29 14:38:35;;;;;;;6.90;2.85;;;;;;;;;;5012539;28;20666;-71
2021/10/29 14:41:08;;;;;;;8.75;3.35;;;;;;;;;;5009756;28;20206;-71
2021/10/29 14:43:42;;;;;;;7.70;3.08;;;;;;;;;;5020815;28;20178;-71
2021/10/29 14:46:31;;;;;;;5.45;3.10;;;;;;;;;;5007314;28;20194;-71
2021/10/29 14:49:10;;;;;;;6.13;3.05;;;;;;;;;;5009970;28;20195;-70
2021/10/29 14:51:52;;;;;;;4.70;2.95;;;;;;;;;;5009891;28;20597;-70
2021/10/29 15:05:23;;;;;;;6.85;4.15;;;;;;;;;;5010463;28;20193;-71
2021/10/29 15:29:40;;;;;;;9.55;4.97;;;;;;;;;;5012041;28;20198;-71
2021/10/29 15:32:39;;;;;;;6.20;3.80;;;;;;;;;;5014534;28;20208;-73
2021/10/29 15:46:15;;;;;;;4.25;3.30;;;;;;;;;;5027659;28;20217;-72
2021/10/29 15:51:11;;;;;;;5.38;3.22;;;;;;;;;;5012151;28;20654;-72
2021/10/29 15:53:37;;;;;;;4.00;3.17;;;;;;;;;;5010612;28;20210;-73
2021/10/29 15:56:12;;;;;;;6.28;3.25;;;;;;;;;;5000031;28;20257;-72
2021/10/29 15:58:45;;;;;;;4.95;3.22;;;;;;;;;;5013510;28;20279;-72
2021/10/29 16:01:56;;;;;;;4.80;2.72;;;;;;;;;;5014097;28;20227;-73
2021/10/29 16:17:26;;;;;;;4.90;4.05;;;;;;;;;;5014715;28;20189;-74
2021/10/29 16:19:51;;;;;;;8.32;4.00;;;;;;;;;;5016761;28;20608;-72
2021/10/29 16:22:19;;;;;;;8.18;3.47;;;;;;;;;;5014664;28;20938;-72
2021/10/29 16:27:45;;;;;;;5.93;3.80;;;;;;;;;;5013844;28;20849;-72
2021/10/29 16:30:10;;;;;;;3.83;3.35;;;;;;;;;;5006223;28;20186;-72
2021/10/29 16:32:51;;;;;;;7.40;3.08;;;;;;;;;;5006937;28;22143;-72
2021/10/29 16:35:17;;;;;;;8.25;3.22;;;;;;;;;;4991458;28;20269;-72
2021/10/29 16:37:43;;;;;;;5.30;2.80;;;;;;;;;;5009449;28;20198;-72
2021/10/29 16:40:09;;;;;;;3.65;2.63;;;;;;;;;;4994965;28;20924;-72
2021/10/29 16:42:35;;;;;;;4.35;2.55;;;;;;;;;;4992832;28;20210;-72
2021/10/29 16:45:00;;;;;;;5.88;2.60;;;;;;;;;;5011941;28;20177;-72
2021/10/29 16:47:27;;;;;;;3.30;1.92;;;;;;;;;;5010919;28;20171;-72
2021/10/29 16:49:52;;;;;;;4.68;2.45;;;;;;;;;;5013562;28;20182;-72
2021/10/29 16:52:18;;;;;;;3.72;2.50;;;;;;;;;;5010990;28;20666;-72
2021/10/29 16:54:43;;;;;;;7.28;2.95;;;;;;;;;;5010353;28;20664;-72
2021/10/29 16:57:08;;;;;;;5.32;3.35;;;;;;;;;;5022124;28;20660;-72
2021/10/29 16:59:34;;;;;;;3.72;3.35;;;;;;;;;;5010267;28;20263;-72
2021/10/29 17:01:59;;;;;;;4.38;2.70;;;;;;;;;;5010287;28;20217;-72
2021/10/29 17:04:24;;;;;;;3.72;2.40;;;;;;;;;;5010904;28;20182;-72
2021/10/29 17:06:49;;;;;;;5.68;2.00;;;;;;;;;;5010544;28;20186;-72
2021/10/29 17:09:15;;;;;;;2.17;1.90;;;;;;;;;;5010587;28;20205;-71
2021/10/29 17:11:40;;;;;;;4.63;2.45;;;;;;;;;;5011887;28;20182;-72
2021/10/29 17:14:05;;;;;;;2.67;2.28;;;;;;;;;;5010907;28;20198;-72
2021/10/29 17:16:30;;;;;;;2.72;2.00;;;;;;;;;;5011434;28;20273;-72
2021/10/29 17:18:56;;;;;;;3.42;2.45;;;;;;;;;;5012812;28;20209;-72
2021/10/29 17:21:21;;;;;;;2.45;1.98;;;;;;;;;;4993455;28;20207;-72
2021/10/29 17:23:46;;;;;;;4.03;2.40;;;;;;;;;;4995064;28;20183;-72
2021/10/29 17:26:11;;;;;;;4.65;2.42;;;;;;;;;;5012317;28;20731;-72
2021/10/29 17:28:36;;;;;;;2.30;1.88;;;;;;;;;;5010302;28;20206;-72
2021/10/29 17:31:02;;;;;;;3.42;2.28;;;;;;;;;;5008425;28;20667;-72
2021/10/29 17:33:27;;;;;;;4.22;2.90;;;;;;;;;;5007729;28;20226;-72
2021/10/29 17:35:52;;;;;;;2.85;2.30;;;;;;;;;;5013250;28;20674;-71
2021/10/29 17:38:18;;;;;;;3.33;2.15;;;;;;;;;;5011220;28;20248;-72
2021/10/29 17:40:43;;;;;;;6.45;3.08;;;;;;;;;;5007975;28;20230;-72
2021/10/29 17:43:08;;;;;;;2.92;2.45;;;;;;;;;;5011504;28;20186;-72
2021/10/29 17:45:34;;;;;;;3.70;2.67;;;;;;;;;;5008758;28;20174;-72
2021/10/29 17:47:59;;;;;;;3.65;2.30;;;;;;;;;;5011051;28;20691;-72
2021/10/29 17:50:24;;;;;;;3.37;2.83;;;;;;;;;;4993814;28;20273;-72
2021/10/29 17:52:52;;;;;;;4.00;2.92;;;;;;;;;;5008671;28;20442;-72
2021/10/29 17:55:17;;;;;;;4.00;2.67;;;;;;;;;;5009100;28;20259;-72
2021/10/29 17:57:43;;;;;;;5.32;2.53;;;;;;;;;;5012744;28;20214;-72
2021/10/29 18:00:09;;;;;;;4.07;2.97;;;;;;;;;;5007346;28;20178;-72
2021/10/29 18:02:34;;;;;;;4.63;2.55;;;;;;;;;;5008060;28;20217;-72
2021/10/29 18:04:59;;;;;;;4.80;3.13;;;;;;;;;;5008761;28;20236;-72
2021/10/29 18:07:26;;;;;;;5.28;4.00;;;;;;;;;;5009224;28;20442;-72
2021/10/29 18:09:52;;;;;;;4.68;3.05;;;;;;;;;;5009594;28;20182;-72
2021/10/29 18:12:18;;;;;;;4.22;3.25;;;;;;;;;;5010304;28;20254;-72
2021/10/29 18:14:44;;;;;;;6.63;3.35;;;;;;;;;;5011562;28;20187;-72
2021/10/29 18:17:10;;;;;;;4.00;3.47;;;;;;;;;;5011218;28;20183;-72
2021/10/29 18:19:35;;;;;;;5.32;4.00;;;;;;;;;;5014309;28;20630;-73
2021/10/29 18:22:02;;;;;;;5.00;4.07;;;;;;;;;;4991262;28;20206;-72
2021/10/29 18:24:27;;;;;;;13.13;5.22;;;;;;;;;;5009688;28;20174;-72
2021/10/29 18:26:52;;;;;;;8.15;3.97;;;;;;;;;;5011255;28;20811;-72
2021/10/29 18:29:18;;;;;;;7.20;3.97;;;;;;;;;;5009128;28;20221;-72
2021/10/29 18:31:43;;;;;;;5.65;4.35;;;;;;;;;;5009845;28;20186;-72
2021/10/29 18:34:09;;;;;;;5.60;4.05;;;;;;;;;;5009430;28;20185;-72
2021/10/29 18:36:34;;;;;;;6.38;4.22;;;;;;;;;;4991105;28;20623;-72
2021/10/29 18:39:00;;;;;;;4.57;3.53;;;;;;;;;;5008768;28;20202;-72
2021/10/29 18:41:30;;;;;;;5.63;4.00;;;;;;;;;;5008926;28;20213;-72
2021/10/29 18:43:56;;;;;;;6.10;4.28;;;;;;;;;;5007685;28;20228;-72
2021/10/29 18:46:21;;;;;;;6.25;4.88;;;;;;;;;;5009938;28;20454;-72
2021/10/29 18:48:49;;;;;;;4.97;4.28;;;;;;;;;;5015815;28;20302;-72
2021/10/29 18:51:15;;;;;;;7.25;4.40;;;;;;;;;;5009139;28;20183;-72
2021/10/29 18:53:40;;;;;;;5.95;4.53;;;;;;;;;;5008963;28;20858;-72
2021/10/29 18:56:05;;;;;;;5.50;4.53;;;;;;;;;;5010203;28;20178;-72
2021/10/29 18:58:30;;;;;;;6.90;4.43;;;;;;;;;;5010175;28;20347;-70
2021/10/29 19:00:55;;;;;;;8.05;4.50;;;;;;;;;;4992004;28;21130;-70
2021/10/29 19:03:21;;;;;;;5.43;4.93;;;;;;;;;;4993641;28;20182;-70
2021/10/29 19:05:46;;;;;;;6.60;4.45;;;;;;;;;;5010314;28;20185;-70
2021/10/29 19:08:11;;;;;;;7.93;4.90;;;;;;;;;;5009966;28;20222;-70
2021/10/29 19:10:36;;;;;;;7.55;5.00;;;;;;;;;;5007577;28;20182;-70
2021/10/29 19:13:02;;;;;;;6.10;4.25;;;;;;;;;;5012149;28;20644;-70
2021/10/29 19:15:27;;;;;;;7.45;4.68;;;;;;;;;;5005331;28;20186;-71